createdAt,value
2023-03-07T00:04:41.118Z,5.6
2023-03-07T00:10:33.748Z,5.8
2023-03-07T00:15:56.668Z,5.8
2023-03-07T00:21:48.788Z,5.9
2023-03-07T00:27:26.641Z,5.9
2023-03-07T00:33:04.257Z,5.8
2023-03-07T00:38:55.713Z,6.2
2023-03-07T00:44:48.784Z,6.5
2023-03-07T00:50:25.562Z,6.9
2023-03-07T00:56:02.753Z,6.9
2023-03-07T01:01:24.566Z,6.9
2023-03-07T01:07:02.225Z,7.1
2023-03-07T01:12:39.188Z,7.3
2023-03-07T01:18:16.945Z,9.1
2023-03-07T01:23:38.683Z,9.3
2023-03-07T01:29:30.937Z,8.4
2023-03-07T01:35:08.981Z,8.5
2023-03-07T01:41:02.242Z,8.3
2023-03-07T01:46:54.560Z,7.9
2023-03-07T01:52:31.310Z,8
2023-03-07T01:57:53.102Z,7.9
2023-03-07T02:03:30.128Z,7.6
2023-03-07T02:09:22.575Z,8.3
2023-03-07T02:14:59.233Z,8.6
2023-03-07T02:20:51.453Z,8.3
2023-03-07T02:26:28.944Z,8.4
2023-03-07T02:32:21.454Z,8.8
2023-03-07T02:37:58.018Z,8.4
2023-03-07T02:43:50.911Z,8.1
2023-03-07T02:49:42.557Z,7.6
2023-03-07T02:55:19.969Z,7.4
2023-03-07T03:00:41.191Z,7.3
2023-03-07T03:06:04.302Z,7.2
2023-03-07T03:11:56.647Z,7.2
2023-03-07T03:17:51.457Z,7.3
2023-03-07T03:23:44.299Z,7.3
2023-03-07T03:29:37.069Z,7.1
2023-03-07T03:35:30.448Z,7.1
2023-03-07T03:41:23.422Z,7.2
2023-03-07T03:47:16.184Z,7.3
2023-03-07T03:53:09.382Z,7.3
2023-03-07T03:59:01.600Z,7.4
2023-03-07T04:04:54.346Z,7.6
2023-03-07T04:10:47.031Z,7.8
2023-03-07T04:16:40.405Z,7.5
2023-03-07T04:22:32.674Z,7.4
2023-03-07T04:28:09.972Z,7.5
2023-03-07T04:33:48.035Z,7.2
2023-03-07T04:39:40.244Z,7
2023-03-07T04:45:03.887Z,6.9
2023-03-07T04:50:42.640Z,7.3
2023-03-07T04:56:19.979Z,7.1
2023-03-07T05:01:41.739Z,7
2023-03-07T05:07:39.145Z,7.1
2023-03-07T05:13:31.294Z,7
2023-03-07T05:19:23.986Z,7.1
2023-03-07T05:25:16.988Z,6.9
2023-03-07T05:31:08.609Z,7.1
2023-03-07T05:37:00.652Z,7.2
2023-03-07T05:42:38.876Z,7.1
2023-03-07T05:48:32.569Z,7.2
2023-03-07T05:54:09.728Z,6.9
2023-03-07T06:00:02.760Z,7.1
2023-03-07T06:05:58.206Z,7.1
2023-03-07T06:11:51.667Z,7.1
2023-03-07T06:17:45.316Z,7.1
2023-03-07T06:23:22.925Z,7.4
2023-03-07T06:29:16.231Z,7.8
2023-03-07T06:35:10.590Z,8.4
2023-03-07T06:40:47.804Z,8.6
2023-03-07T06:46:28.320Z,8.4
2023-03-07T06:52:34.620Z,8.1
2023-03-07T06:58:28.279Z,8.4
2023-03-07T07:04:21.422Z,8.4
2023-03-07T07:10:14.021Z,9.1
2023-03-07T07:15:49.785Z,9.2
2023-03-07T07:21:11.580Z,9.5
2023-03-07T07:27:04.945Z,10.4
2023-03-07T07:32:58.144Z,10.8
2023-03-07T07:38:50.864Z,11
2023-03-07T07:44:43.768Z,11.4
2023-03-07T07:50:35.801Z,11.3
2023-03-07T07:56:28.125Z,10.8
2023-03-07T08:02:24.381Z,10.8
2023-03-07T08:08:17.759Z,10.9
2023-03-07T08:14:12.885Z,11.1
2023-03-07T08:20:06.503Z,11.3
2023-03-07T08:26:09.256Z,11.9
2023-03-07T08:32:03.264Z,12.4
2023-03-07T08:37:56.346Z,12.4
2023-03-07T08:43:34.069Z,12.8
2023-03-07T08:49:27.838Z,13.6
2023-03-07T08:55:21.289Z,13.3
2023-03-07T09:01:14.322Z,12.8
2023-03-07T09:07:07.932Z,13.1
2023-03-07T09:13:00.803Z,14.4
2023-03-07T09:19:04.782Z,13.7
2023-03-07T09:24:57.616Z,14.9
2023-03-07T09:30:50.384Z,14.6
2023-03-07T09:36:27.095Z,16.5
2023-03-07T09:42:22.622Z,14.8
2023-03-07T09:48:15.509Z,14.7
2023-03-07T09:54:02.885Z,14.1
2023-03-07T10:00:11.228Z,14.8
2023-03-07T10:06:05.092Z,14.7
2023-03-07T10:11:59.824Z,15.4
2023-03-07T10:17:38.330Z,14.9
2023-03-07T10:23:17.798Z,14.8
2023-03-07T10:29:09.642Z,14.4
2023-03-07T10:35:16.171Z,16.5
2023-03-07T10:41:23.144Z,15.8
2023-03-07T10:47:44.214Z,15.7
2023-03-07T10:53:25.187Z,15.4
2023-03-07T10:59:21.273Z,16.2
2023-03-07T11:05:22.833Z,16.2
2023-03-07T11:11:15.076Z,16.1
2023-03-07T11:17:02.392Z,15.8
2023-03-07T11:22:23.279Z,16.1
2023-03-07T11:28:16.644Z,16.4
2023-03-07T11:34:09.572Z,15.9
2023-03-07T11:40:00.974Z,16.5
2023-03-07T11:45:54.184Z,15.6
2023-03-07T11:51:33.264Z,15.6
2023-03-07T11:57:25.213Z,16.3
2023-03-07T12:03:18.345Z,15.2
2023-03-07T12:08:55.640Z,15.4
2023-03-07T12:14:49.112Z,15.6
2023-03-07T12:20:41.838Z,17.1
2023-03-07T12:26:19.129Z,15.9
2023-03-07T12:32:14.337Z,15.1
2023-03-07T12:38:09.190Z,15.9
2023-03-07T12:49:09.808Z,16.2
2023-03-07T12:55:09.429Z,16.4
2023-03-07T13:00:31.793Z,16
2023-03-07T13:06:25.016Z,16.6
2023-03-07T13:12:18.672Z,16
2023-03-07T13:18:12.510Z,16
2023-03-07T13:24:05.337Z,15.8
2023-03-07T13:29:43.369Z,15
2023-03-07T13:35:36.528Z,14.7
2023-03-07T13:41:14.674Z,15.8
2023-03-07T13:47:09.320Z,15.2
2023-03-07T13:53:01.723Z,15.3
2023-03-07T13:58:57.353Z,15.7
2023-03-07T14:04:57.413Z,15.1
2023-03-07T14:10:55.813Z,14.7
2023-03-07T14:16:49.901Z,14.9
2023-03-07T14:22:43.147Z,14.9
2023-03-07T14:28:36.261Z,14.7
2023-03-07T14:34:14.678Z,15
2023-03-07T14:40:09.769Z,15.1
2023-03-07T14:46:02.680Z,14.8
2023-03-07T14:51:55.910Z,14.5
2023-03-07T14:57:57.958Z,14.9
2023-03-07T15:04:00.373Z,14.8
2023-03-07T15:09:54.228Z,14.5
2023-03-07T15:15:48.501Z,14.3
2023-03-07T15:21:11.171Z,14.1
2023-03-07T15:27:04.402Z,14.3
2023-03-07T15:32:41.908Z,14.3
2023-03-07T15:38:34.189Z,14.1
2023-03-07T15:43:56.988Z,13.8
2023-03-07T15:49:50.776Z,13.6
2023-03-07T15:55:42.598Z,13.6
2023-03-07T16:01:19.776Z,13.6
2023-03-07T16:06:58.658Z,13.5
2023-03-07T16:12:04.285Z,13.4
2023-03-07T16:17:56.805Z,13.3
2023-03-07T16:23:51.291Z,13.1
2023-03-07T16:29:28.340Z,13.1
2023-03-07T16:35:06.215Z,12.9
2023-03-07T16:40:28.439Z,12.9
2023-03-07T16:46:21.640Z,12.8
2023-03-07T16:52:22.675Z,12.8
2023-03-07T16:58:00.330Z,12.6
2023-03-07T17:03:54.154Z,12.4
2023-03-07T17:09:38.749Z,12.4
2023-03-07T17:15:32.187Z,12.3
2023-03-07T17:21:24.480Z,12.3
2023-03-07T17:27:17.899Z,12.1
2023-03-07T17:33:11.236Z,12.1
2023-03-07T17:39:04.234Z,12
2023-03-07T17:44:56.602Z,12
2023-03-07T17:50:50.245Z,11.8
2023-03-07T17:56:42.621Z,11.8
2023-03-07T18:02:38.715Z,11.7
2023-03-07T18:08:31.887Z,11.6
2023-03-07T18:14:38.251Z,11.6
2023-03-07T18:20:33.451Z,11.6
2023-03-07T18:25:58.560Z,11.5
2023-03-07T18:31:51.300Z,11.6
2023-03-07T18:37:45.197Z,11.4
2023-03-07T18:43:38.613Z,11.5
2023-03-07T18:49:31.061Z,11.3
2023-03-07T18:55:24.625Z,11.3
2023-03-07T19:01:02.368Z,11.1
2023-03-07T19:06:55.405Z,11.1
2023-03-07T19:12:35.448Z,11.2
2023-03-07T19:18:13.694Z,11.1
2023-03-07T19:24:05.360Z,11
2023-03-07T19:29:57.477Z,11
2023-03-07T19:35:35.807Z,11.1
2023-03-07T19:41:14.146Z,11.1
2023-03-07T19:47:06.635Z,10.9
2023-03-07T19:53:00.162Z,10.8
2023-03-07T19:58:52.504Z,10.8
2023-03-07T20:04:44.869Z,10.8
2023-03-07T20:10:38.266Z,10.8
2023-03-07T20:16:47.559Z,10.6
2023-03-07T20:22:40.300Z,10.6
2023-03-07T20:28:18.492Z,10.6
2023-03-07T20:34:11.521Z,10.8
2023-03-07T20:40:05.052Z,10.6
2023-03-07T20:45:58.863Z,10.6
2023-03-07T20:51:52.908Z,10.6
2023-03-07T20:57:46.036Z,10.5
2023-03-07T21:03:54.360Z,10.3
2023-03-07T21:09:16.229Z,9
2023-03-07T21:14:41.080Z,8.6
2023-03-07T21:20:18.806Z,8.3
2023-03-07T21:25:40.866Z,8.1
2023-03-07T21:31:33.488Z,7.9
2023-03-07T21:37:10.478Z,8
2023-03-07T21:42:32.187Z,7.9
2023-03-07T21:48:25.116Z,7.3
2023-03-07T21:54:17.685Z,7.4
2023-03-07T22:00:09.664Z,7.5
2023-03-07T22:05:46.464Z,7
2023-03-07T22:11:23.665Z,6.5
2023-03-07T22:17:01.353Z,6.4
2023-03-07T22:22:38.525Z,6.4
2023-03-07T22:28:16.251Z,6.2
2023-03-07T22:33:38.661Z,6.3
2023-03-07T22:39:15.999Z,6.1
2023-03-07T22:44:37.411Z,6.8
2023-03-07T22:50:14.435Z,6.5
2023-03-07T22:55:20.632Z,6.3
2023-03-07T23:01:13.771Z,6.6
2023-03-07T23:06:51.479Z,6.9
2023-03-07T23:12:43.634Z,6.8
2023-03-07T23:18:22.308Z,6.8
2023-03-07T23:24:03.590Z,5.9
2023-03-07T23:29:56.454Z,5.9
2023-03-07T23:35:49.926Z,6.3
2023-03-07T23:41:43.971Z,6
2023-03-07T23:47:24.308Z,6.6
2023-03-07T23:52:46.336Z,5.8
2023-03-07T23:58:38.943Z,5.9
